Stad Amsterdam — PECA — position and weather

sailwx.info

Track history (hours):
 
Tides and Currents Weather Stations Pressure Air Temp Water Temp Dewpoint Dewpoint Depression Visibility Wind Speed Wind Dir Waves Ship Positions

Stad Amsterdam (Netherlands)

Ship's website: http://www.stadamsterdam.com/content/home/index.xml

Last reported at 2017-Jul-24 02:59 UTC. Time now 2017-Jul-24 08:37 UTC.
Position N 39°20' W 009°43'.

Length 76 m; beam 10 m.

Type: Sailing vessel. MMSI: 246494000.

Date/timePositionNaut miles runAvg speedWind from/ knotsBaromVisibWave heightAir tempDewpointWater temp
2017-Jul-24 02:59N 39°20' W 009°43'3 6.7
2017-Jul-24 02:30N 39°17' W 009°43'3 6.9
2017-Jul-24 01:59N 39°13' W 009°42'3 6.6
2017-Jul-24 01:30N 39°10' W 009°44'3 6.7
2017-Jul-24 01:00N 39°07' W 009°43'3 6.8
2017-Jul-24 00:30N 39°04' W 009°43'3 6.5
2017-Jul-24 00:00N 39°00' W 009°43'3 5.7
2017-Jul-23 23:30N 38°57' W 009°43'3 5.3
2017-Jul-23 23:00N 38°55' W 009°43'3 5.2
2017-Jul-23 22:30N 38°52' W 009°43'3 5.0
2017-Jul-23 22:00N 38°50' W 009°42'2 4.9
2017-Jul-23 21:30N 38°47' W 009°42'3 5.1
2017-Jul-23 21:00N 38°45' W 009°42'3 5.4
2017-Jul-23 20:30N 38°42' W 009°41'3 5.2
2017-Jul-23 20:00N 38°40' W 009°40'3 6.3
2017-Jul-23 19:30N 38°39' W 009°37'3 6.5
2017-Jul-23 19:00N 38°38' W 009°33'3 5.8
2017-Jul-23 18:30N 38°37' W 009°29'3 6.3
2017-Jul-23 18:00N 38°37' W 009°25'4 8.6
2017-Jul-23 17:30N 38°39' W 009°20'511.0
2017-Jul-23 17:00N 38°41' W 009°14'510.5
2017-Jul-23 16:30N 38°43' W 009°07'0 0.3
2017-Jul-23 15:40N 38°43' W 009°07'0 0.0
2017-Jul-23 15:25N 38°43' W 009°07'0 0.0
2017-Jul-23 14:58N 38°43' W 009°07'0 0.0
2017-Jul-23 13:07N 38°43' W 009°07'0 0.0
2017-Jul-23 11:22N 38°43' W 009°07'0 0.0
2017-Jul-23 10:58N 38°43' W 009°07'0 0.0
2017-Jul-23 10:22N 38°43' W 009°07'0 0.0
2017-Jul-23 09:58N 38°43' W 009°07'0 0.0
2017-Jul-23 09:13N 38°43' W 009°07'0 0.0
2017-Jul-23 08:49N 38°43' W 009°07'0 0.0
2017-Jul-23 06:53N 38°43' W 009°07'0 0.0
2017-Jul-23 06:30N 38°43' W 009°07'3 5.3
2017-Jul-23 06:00N 38°42' W 009°10'3 5.4
2017-Jul-23 05:30N 38°41' W 009°14'3 6.2
2017-Jul-23 05:00N 38°41' W 009°18'3 5.7
2017-Jul-23 04:30N 38°39' W 009°20'3 6.3
2017-Jul-23 04:00N 38°36' W 009°23'3 6.3
2017-Jul-23 03:30N 38°33' W 009°24'3 6.6
2017-Jul-23 03:00N 38°30' W 009°24'4 7.6
2017-Jul-23 02:29N 38°26' W 009°24'5 7.1
2017-Jul-23 01:49N 38°21' W 009°25'2 5.4
2017-Jul-23 01:30N 38°20' W 009°27'0 0.8
2017-Jul-23 01:00N 38°20' W 009°27'1 1.4
2017-Jul-23 00:29N 38°20' W 009°28'2 2.7
2017-Jul-22 23:51N 38°19' W 009°30'22 6.3
2017-Jul-22 20:19N 38°09' W 009°55'1 3.2
2017-Jul-22 20:00N 38°09' W 009°57'3 5.4
2017-Jul-22 19:30N 38°09' W 009°53'5 6.0
2017-Jul-22 18:40N 38°10' W 009°47'1 6.6
2017-Jul-22 18:30N 38°10' W 009°46'3 6.6
2017-Jul-22 18:00N 38°11' W 009°41'3 5.7
2017-Jul-22 17:30N 38°11' W 009°38'3 5.5
2017-Jul-22 17:00N 38°12' W 009°34'2 4.9
2017-Jul-22 16:30N 38°12' W 009°31'3 7.0
2017-Jul-22 16:00N 38°12' W 009°27'4 7.9
2017-Jul-22 15:30N 38°14' W 009°22'4 7.4
2017-Jul-22 15:00N 38°15' W 009°18'7 7.4
2017-Jul-22 14:00N 38°19' W 009°10'2 3.4
2017-Jul-22 13:30N 38°20' W 009°08'5 9.8
2017-Jul-22 13:00N 38°16' W 009°12'510.1
2017-Jul-22 12:30N 38°12' W 009°15'510.0
2017-Jul-22 12:00N 38°08' W 009°19'4 9.0
2017-Jul-22 11:30N 38°05' W 009°23'5 9.2
2017-Jul-22 11:00N 38°02' W 009°28'4 8.6
2017-Jul-22 10:30N 37°60' W 009°33'4 8.3
2017-Jul-22 10:00N 37°57' W 009°37'69 2.6
2017-Jul-21 07:23N 36°59' W 008°52'2 6.2
2017-Jul-21 06:59N 36°59' W 008°49'3 5.3
2017-Jul-21 06:30N 36°59' W 008°46'3 6.5
2017-Jul-21 06:00N 36°59' W 008°41'2 4.6
2017-Jul-21 05:30N 36°60' W 008°39'2 4.8
2017-Jul-21 05:00N 36°59' W 008°36'2 4.9
2017-Jul-21 04:30N 36°59' W 008°33'3 5.3
2017-Jul-21 04:00N 36°58' W 008°29'3 5.4
2017-Jul-21 03:30N 36°57' W 008°26'3 5.9
2017-Jul-21 03:00N 36°56' W 008°23'4 7.1
2017-Jul-21 02:30N 36°55' W 008°19'3 6.9
2017-Jul-21 02:00N 36°54' W 008°15'4 9.0
2017-Jul-21 01:30N 36°53' W 008°09'  
2017-Jul-18 12:03N 36°34' W 000°50'2 7.7
2017-Jul-18 11:50N 36°36' W 000°49'2 7.4
2017-Jul-18 11:31N 36°38' W 000°48'14 6.5
2017-Jul-18 09:26N 36°49' W 000°38'3 6.1
2017-Jul-18 08:54N 36°51' W 000°35'3 6.7
2017-Jul-18 08:25N 36°53' W 000°32'9 8.3
2017-Jul-18 07:17N 36°58' W 000°22'3 9.3
2017-Jul-18 06:59N 36°59' W 000°19'3 7.2
2017-Jul-18 06:30N 37°01' W 000°15'3 6.3
2017-Jul-18 06:00N 37°03' W 000°12'4 7.8
2017-Jul-18 05:30N 37°05' W 000°08'3 5.2
2017-Jul-18 05:00N 37°07' W 000°06'3 6.7
2017-Jul-18 04:30N 37°09' W 000°03'4 7.4
2017-Jul-18 04:01N 37°12' W 000°00'3 6.6
2017-Jul-18 03:31N 37°16' E 000°01'3 5.6
2017-Jul-18 03:00N 37°18' E 000°02'3 5.8
2017-Jul-18 02:28N 37°21' E 000°03'2 4.3
2017-Jul-18 02:00N 37°23' E 000°03'2 4.1
2017-Jul-18 01:30N 37°25' E 000°04'3 5.9
2017-Jul-18 01:00N 37°28' E 000°05'3 4.5
2017-Jul-18 00:24N 37°31' E 000°07'2 4.1
2017-Jul-17 23:59N 37°32' E 000°08'1 3.0
2017-Jul-17 23:30N 37°33' E 000°09'2 3.2
2017-Jul-17 23:00N 37°34' E 000°11'2 4.2
2017-Jul-17 22:30N 37°35' E 000°13'2 4.2
2017-Jul-17 22:00N 37°37' E 000°15'13 7.0
2017-Jul-17 20:08N 37°46' E 000°27'4 8.2
2017-Jul-17 19:36N 37°49' E 000°31'1 8.0
2017-Jul-17 19:31N 37°49' E 000°31'4 7.7
2017-Jul-17 19:00N 37°52' E 000°35'4 7.9
2017-Jul-17 18:30N 37°55' E 000°38'15 7.8
2017-Jul-17 16:33N 38°07' E 000°50'0 6.4
2017-Jul-17 16:29N 38°07' E 000°50'7 5.8
2017-Jul-17 15:12N 38°13' E 000°56'1 6.2
2017-Jul-17 15:00N 38°14' E 000°57'3 5.5
2017-Jul-17 14:27N 38°17' E 000°59'3 6.4
2017-Jul-17 14:00N 38°19' E 001°01'4 7.2
2017-Jul-17 13:30N 38°22' E 001°03'4 7.1
2017-Jul-17 13:00N 38°26' E 001°05'3 6.8
2017-Jul-17 12:31N 38°29' E 001°07'4 7.4
2017-Jul-17 12:00N 38°32' E 001°09'8 7.1
2017-Jul-17 10:48N 38°39' E 001°15'6 6.5
2017-Jul-17 09:49N 38°44' E 001°20'3 6.8
2017-Jul-17 09:21N 38°47' E 001°23'3 6.5
2017-Jul-17 08:55N 38°49' E 001°25'4 7.6
2017-Jul-17 08:27N 38°52' E 001°26'  
2017-Jul-14 11:19N 38°42' E 001°21'1 4.3
2017-Jul-14 11:00N 38°43' E 001°22'4 6.5
2017-Jul-14 10:19N 38°47' E 001°24'6 4.8
2017-Jul-14 09:08N 38°52' E 001°27'1 3.6
2017-Jul-14 08:48N 38°53' E 001°27'  
Track history (hours):
 
Tides and Currents Weather Stations Pressure Air Temp Water Temp Dewpoint Dewpoint Depression Visibility Wind Speed Wind Dir Waves Ship Positions

Stad Amsterdam (Netherlands)

Ship's website: http://www.stadamsterdam.com/content/home/index.xml

Last reported at 2017-Jul-24 02:59 UTC. Time now 2017-Jul-24 08:37 UTC.
Position N 39°20' W 009°43'.

Length 76 m; beam 10 m.

Type: Sailing vessel. MMSI: 246494000.

Date/timePositionNaut miles runAvg speedWind from/ knotsBaromVisibWave heightAir tempDewpointWater temp
2017-Jul-24 02:59N 39°20' W 009°43'3 6.7
2017-Jul-24 02:30N 39°17' W 009°43'3 6.9
2017-Jul-24 01:59N 39°13' W 009°42'3 6.6
2017-Jul-24 01:30N 39°10' W 009°44'3 6.7
2017-Jul-24 01:00N 39°07' W 009°43'3 6.8
2017-Jul-24 00:30N 39°04' W 009°43'3 6.5
2017-Jul-24 00:00N 39°00' W 009°43'3 5.7
2017-Jul-23 23:30N 38°57' W 009°43'3 5.3
2017-Jul-23 23:00N 38°55' W 009°43'3 5.2
2017-Jul-23 22:30N 38°52' W 009°43'3 5.0
2017-Jul-23 22:00N 38°50' W 009°42'2 4.9
2017-Jul-23 21:30N 38°47' W 009°42'3 5.1
2017-Jul-23 21:00N 38°45' W 009°42'3 5.4
2017-Jul-23 20:30N 38°42' W 009°41'3 5.2
2017-Jul-23 20:00N 38°40' W 009°40'3 6.3
2017-Jul-23 19:30N 38°39' W 009°37'3 6.5
2017-Jul-23 19:00N 38°38' W 009°33'3 5.8
2017-Jul-23 18:30N 38°37' W 009°29'3 6.3
2017-Jul-23 18:00N 38°37' W 009°25'4 8.6
2017-Jul-23 17:30N 38°39' W 009°20'511.0
2017-Jul-23 17:00N 38°41' W 009°14'510.5
2017-Jul-23 16:30N 38°43' W 009°07'0 0.3
2017-Jul-23 15:40N 38°43' W 009°07'0 0.0
2017-Jul-23 15:25N 38°43' W 009°07'0 0.0
2017-Jul-23 14:58N 38°43' W 009°07'0 0.0
2017-Jul-23 13:07N 38°43' W 009°07'0 0.0
2017-Jul-23 11:22N 38°43' W 009°07'0 0.0
2017-Jul-23 10:58N 38°43' W 009°07'0 0.0
2017-Jul-23 10:22N 38°43' W 009°07'0 0.0
2017-Jul-23 09:58N 38°43' W 009°07'0 0.0
2017-Jul-23 09:13N 38°43' W 009°07'0 0.0
2017-Jul-23 08:49N 38°43' W 009°07'0 0.0
2017-Jul-23 06:53N 38°43' W 009°07'0 0.0
2017-Jul-23 06:30N 38°43' W 009°07'3 5.3
2017-Jul-23 06:00N 38°42' W 009°10'3 5.4
2017-Jul-23 05:30N 38°41' W 009°14'3 6.2
2017-Jul-23 05:00N 38°41' W 009°18'3 5.7
2017-Jul-23 04:30N 38°39' W 009°20'3 6.3
2017-Jul-23 04:00N 38°36' W 009°23'3 6.3
2017-Jul-23 03:30N 38°33' W 009°24'3 6.6
2017-Jul-23 03:00N 38°30' W 009°24'4 7.6
2017-Jul-23 02:29N 38°26' W 009°24'5 7.1
2017-Jul-23 01:49N 38°21' W 009°25'2 5.4
2017-Jul-23 01:30N 38°20' W 009°27'0 0.8
2017-Jul-23 01:00N 38°20' W 009°27'1 1.4
2017-Jul-23 00:29N 38°20' W 009°28'2 2.7
2017-Jul-22 23:51N 38°19' W 009°30'22 6.3
2017-Jul-22 20:19N 38°09' W 009°55'1 3.2
2017-Jul-22 20:00N 38°09' W 009°57'3 5.4
2017-Jul-22 19:30N 38°09' W 009°53'5 6.0
2017-Jul-22 18:40N 38°10' W 009°47'1 6.6
2017-Jul-22 18:30N 38°10' W 009°46'3 6.6
2017-Jul-22 18:00N 38°11' W 009°41'3 5.7
2017-Jul-22 17:30N 38°11' W 009°38'3 5.5
2017-Jul-22 17:00N 38°12' W 009°34'2 4.9
2017-Jul-22 16:30N 38°12' W 009°31'3 7.0
2017-Jul-22 16:00N 38°12' W 009°27'4 7.9
2017-Jul-22 15:30N 38°14' W 009°22'4 7.4
2017-Jul-22 15:00N 38°15' W 009°18'7 7.4
2017-Jul-22 14:00N 38°19' W 009°10'2 3.4
2017-Jul-22 13:30N 38°20' W 009°08'5 9.8
2017-Jul-22 13:00N 38°16' W 009°12'510.1
2017-Jul-22 12:30N 38°12' W 009°15'510.0
2017-Jul-22 12:00N 38°08' W 009°19'4 9.0
2017-Jul-22 11:30N 38°05' W 009°23'5 9.2
2017-Jul-22 11:00N 38°02' W 009°28'4 8.6
2017-Jul-22 10:30N 37°60' W 009°33'4 8.3
2017-Jul-22 10:00N 37°57' W 009°37'69 2.6
2017-Jul-21 07:23N 36°59' W 008°52'2 6.2
2017-Jul-21 06:59N 36°59' W 008°49'3 5.3
2017-Jul-21 06:30N 36°59' W 008°46'3 6.5
2017-Jul-21 06:00N 36°59' W 008°41'2 4.6
2017-Jul-21 05:30N 36°60' W 008°39'2 4.8
2017-Jul-21 05:00N 36°59' W 008°36'2 4.9
2017-Jul-21 04:30N 36°59' W 008°33'3 5.3
2017-Jul-21 04:00N 36°58' W 008°29'3 5.4
2017-Jul-21 03:30N 36°57' W 008°26'3 5.9
2017-Jul-21 03:00N 36°56' W 008°23'4 7.1
2017-Jul-21 02:30N 36°55' W 008°19'3 6.9
2017-Jul-21 02:00N 36°54' W 008°15'4 9.0
2017-Jul-21 01:30N 36°53' W 008°09'  
2017-Jul-18 12:03N 36°34' W 000°50'2 7.7
2017-Jul-18 11:50N 36°36' W 000°49'2 7.4
2017-Jul-18 11:31N 36°38' W 000°48'14 6.5
2017-Jul-18 09:26N 36°49' W 000°38'3 6.1
2017-Jul-18 08:54N 36°51' W 000°35'3 6.7
2017-Jul-18 08:25N 36°53' W 000°32'9 8.3
2017-Jul-18 07:17N 36°58' W 000°22'3 9.3
2017-Jul-18 06:59N 36°59' W 000°19'3 7.2
2017-Jul-18 06:30N 37°01' W 000°15'3 6.3
2017-Jul-18 06:00N 37°03' W 000°12'4 7.8
2017-Jul-18 05:30N 37°05' W 000°08'3 5.2
2017-Jul-18 05:00N 37°07' W 000°06'3 6.7
2017-Jul-18 04:30N 37°09' W 000°03'4 7.4
2017-Jul-18 04:01N 37°12' W 000°00'3 6.6
2017-Jul-18 03:31N 37°16' E 000°01'3 5.6
2017-Jul-18 03:00N 37°18' E 000°02'3 5.8
2017-Jul-18 02:28N 37°21' E 000°03'2 4.3
2017-Jul-18 02:00N 37°23' E 000°03'2 4.1
2017-Jul-18 01:30N 37°25' E 000°04'3 5.9
2017-Jul-18 01:00N 37°28' E 000°05'3 4.5
2017-Jul-18 00:24N 37°31' E 000°07'2 4.1
2017-Jul-17 23:59N 37°32' E 000°08'1 3.0
2017-Jul-17 23:30N 37°33' E 000°09'2 3.2
2017-Jul-17 23:00N 37°34' E 000°11'2 4.2
2017-Jul-17 22:30N 37°35' E 000°13'2 4.2
2017-Jul-17 22:00N 37°37' E 000°15'13 7.0
2017-Jul-17 20:08N 37°46' E 000°27'4 8.2
2017-Jul-17 19:36N 37°49' E 000°31'1 8.0
2017-Jul-17 19:31N 37°49' E 000°31'4 7.7
2017-Jul-17 19:00N 37°52' E 000°35'4 7.9
2017-Jul-17 18:30N 37°55' E 000°38'15 7.8
2017-Jul-17 16:33N 38°07' E 000°50'0 6.4
2017-Jul-17 16:29N 38°07' E 000°50'7 5.8
2017-Jul-17 15:12N 38°13' E 000°56'1 6.2
2017-Jul-17 15:00N 38°14' E 000°57'3 5.5
2017-Jul-17 14:27N 38°17' E 000°59'3 6.4
2017-Jul-17 14:00N 38°19' E 001°01'4 7.2
2017-Jul-17 13:30N 38°22' E 001°03'4 7.1
2017-Jul-17 13:00N 38°26' E 001°05'3 6.8
2017-Jul-17 12:31N 38°29' E 001°07'4 7.4
2017-Jul-17 12:00N 38°32' E 001°09'8 7.1
2017-Jul-17 10:48N 38°39' E 001°15'6 6.5
2017-Jul-17 09:49N 38°44' E 001°20'3 6.8
2017-Jul-17 09:21N 38°47' E 001°23'3 6.5
2017-Jul-17 08:55N 38°49' E 001°25'4 7.6
2017-Jul-17 08:27N 38°52' E 001°26'  
2017-Jul-14 11:19N 38°42' E 001°21'1 4.3
2017-Jul-14 11:00N 38°43' E 001°22'4 6.5
2017-Jul-14 10:19N 38°47' E 001°24'6 4.8
2017-Jul-14 09:08N 38°52' E 001°27'1 3.6
2017-Jul-14 08:48N 38°53' E 001°27'  

Dump ship's entire track history